createdAt,value
2022-10-24T00:01:29.710Z,9.88
2022-10-24T00:04:00.346Z,9.68
2022-10-24T00:06:30.994Z,14.93
2022-10-24T00:09:01.482Z,10.98
2022-10-24T00:11:31.824Z,9.35
2022-10-24T00:14:02.304Z,9.73
2022-10-24T00:16:32.745Z,10.00
2022-10-24T00:19:03.178Z,9.38
2022-10-24T00:21:33.667Z,9.38
2022-10-24T00:24:03.964Z,9.35
2022-10-24T00:26:35.198Z,10.13
2022-10-24T00:29:06.291Z,10.00
2022-10-24T00:31:36.917Z,9.53
2022-10-24T00:34:07.338Z,10.68
2022-10-24T00:36:37.866Z,11.33
2022-10-24T00:39:08.265Z,11.25
2022-10-24T00:41:43.097Z,11.43
2022-10-24T00:44:24.902Z,11.30
2022-10-24T00:47:00.989Z,12.13
2022-10-24T00:49:34.475Z,11.88
2022-10-24T00:52:07.954Z,12.73
2022-10-24T00:54:40.523Z,11.75
2022-10-24T00:57:32.059Z,12.73
2022-10-24T01:00:14.675Z,12.23
2022-10-24T01:02:45.918Z,12.73
2022-10-24T01:05:17.727Z,12.65
2022-10-24T01:08:14.005Z,12.82
2022-10-24T01:11:05.668Z,12.15
2022-10-24T01:13:42.171Z,11.55
2022-10-24T01:16:42.613Z,12.33
2022-10-24T01:19:40.503Z,12.93
2022-10-24T01:22:20.018Z,13.10
2022-10-24T01:25:03.677Z,12.65
2022-10-24T01:27:55.721Z,12.55
2022-10-24T01:30:28.291Z,12.30
2022-10-24T01:33:04.561Z,11.97
2022-10-24T01:35:46.895Z,12.65
2022-10-24T01:38:23.337Z,13.62
2022-10-24T01:40:59.827Z,12.28
2022-10-24T01:43:42.471Z,12.82
2022-10-24T01:46:16.451Z,12.68
2022-10-24T01:48:50.037Z,13.25
2022-10-24T01:51:23.614Z,12.88
2022-10-24T01:53:55.485Z,12.58
2022-10-24T01:56:27.223Z,13.38
2022-10-24T01:59:08.940Z,12.33
2022-10-24T02:01:40.193Z,12.88
2022-10-24T02:04:13.741Z,12.58
2022-10-24T02:06:45.631Z,12.58
2022-10-24T02:09:19.480Z,13.85
2022-10-24T02:11:52.499Z,13.60
2022-10-24T02:14:41.122Z,12.50
2022-10-24T02:17:11.681Z,12.78
2022-10-24T02:19:43.548Z,12.18
2022-10-24T02:22:44.456Z,12.70
2022-10-24T02:25:17.938Z,12.10
2022-10-24T02:28:09.640Z,12.47
2022-10-24T02:30:46.224Z,12.03
2022-10-24T02:33:18.189Z,11.35
2022-10-24T02:35:52.541Z,11.53
2022-10-24T02:38:28.488Z,10.85
2022-10-24T02:41:01.784Z,11.10
2022-10-24T02:43:34.905Z,11.33
2022-10-24T02:46:06.472Z,11.03
2022-10-24T02:48:39.875Z,11.55
2022-10-24T02:51:11.345Z,11.97
2022-10-24T02:53:43.712Z,11.83
2022-10-24T02:56:14.301Z,11.68
2022-10-24T02:58:44.913Z,11.25
2022-10-24T03:01:15.491Z,11.53
2022-10-24T03:03:46.075Z,11.68
2022-10-24T03:06:16.684Z,11.55
2022-10-24T03:08:47.110Z,11.22
2022-10-24T03:11:17.982Z,11.73
2022-10-24T03:13:48.286Z,11.40
2022-10-24T03:16:18.668Z,11.28
2022-10-24T03:18:49.077Z,11.78
2022-10-24T03:21:19.635Z,10.82
2022-10-24T03:23:50.918Z,10.68
2022-10-24T03:26:21.404Z,11.53
2022-10-24T03:28:51.897Z,10.50
2022-10-24T03:31:22.318Z,10.15
2022-10-24T03:33:52.889Z,9.90
2022-10-24T03:36:23.278Z,12.58
2022-10-24T03:38:53.570Z,10.30
2022-10-24T03:41:24.478Z,9.58
2022-10-24T03:43:54.896Z,9.80
2022-10-24T03:46:25.426Z,9.53
2022-10-24T03:48:55.958Z,9.85
2022-10-24T03:51:26.494Z,9.20
2022-10-24T03:53:56.882Z,9.03
2022-10-24T03:56:27.467Z,8.93
2022-10-24T03:58:57.886Z,8.90
2022-10-24T04:01:28.391Z,9.33
2022-10-24T04:03:58.846Z,8.88
2022-10-24T04:06:31.338Z,9.03
2022-10-24T04:09:01.290Z,8.85
2022-10-24T04:11:31.630Z,9.83
2022-10-24T04:16:34.830Z,8.70
2022-10-24T04:19:05.429Z,8.65
2022-10-24T04:21:35.688Z,9.00
2022-10-24T04:24:06.618Z,8.18
2022-10-24T04:26:37.816Z,8.48
2022-10-24T04:29:08.199Z,8.25
2022-10-24T04:31:38.790Z,8.70
2022-10-24T04:34:09.107Z,8.25
2022-10-24T04:36:39.492Z,8.93
2022-10-24T04:39:09.906Z,8.65
2022-10-24T04:41:40.317Z,8.43
2022-10-24T04:44:10.692Z,9.20
2022-10-24T04:46:41.069Z,7.85
2022-10-24T04:49:11.460Z,8.38
2022-10-24T04:51:41.789Z,8.28
2022-10-24T04:54:12.162Z,8.98
2022-10-24T04:56:45.597Z,8.23
2022-10-24T04:59:15.931Z,7.80
2022-10-24T05:01:46.360Z,8.15
2022-10-24T05:04:16.794Z,7.62
2022-10-24T05:06:47.264Z,7.78
2022-10-24T05:09:17.651Z,7.90
2022-10-24T05:11:47.997Z,8.08
2022-10-24T05:14:18.375Z,7.80
2022-10-24T05:16:49.256Z,7.90
2022-10-24T05:19:20.216Z,7.62
2022-10-24T05:21:50.626Z,7.90
2022-10-24T05:24:20.989Z,7.58
2022-10-24T05:26:51.331Z,8.15
2022-10-24T05:29:21.873Z,7.83
2022-10-24T05:31:52.216Z,7.80
2022-10-24T05:34:22.566Z,8.23
2022-10-24T05:36:53.420Z,8.10
2022-10-24T05:39:23.627Z,7.50
2022-10-24T05:41:55.386Z,8.18
2022-10-24T05:44:25.932Z,8.18
2022-10-24T05:46:56.616Z,7.78
2022-10-24T05:49:26.963Z,8.50
2022-10-24T05:51:57.453Z,8.43
2022-10-24T05:54:33.444Z,8.80
2022-10-24T05:56:59.986Z,8.48
2022-10-24T05:59:30.425Z,8.43
2022-10-24T06:02:00.847Z,7.92
2022-10-24T06:04:31.246Z,8.03
2022-10-24T06:07:01.597Z,8.78
2022-10-24T06:09:31.982Z,8.65
2022-10-24T06:12:02.407Z,9.13
2022-10-24T06:14:32.724Z,8.85
2022-10-24T06:17:05.210Z,8.83
2022-10-24T06:19:36.704Z,9.08
2022-10-24T06:22:08.997Z,8.30
2022-10-24T06:24:39.642Z,9.53
2022-10-24T06:27:10.507Z,9.55
2022-10-24T06:29:40.809Z,8.55
2022-10-24T06:32:15.664Z,9.70
2022-10-24T06:34:45.964Z,8.95
2022-10-24T06:37:16.426Z,9.68
2022-10-24T06:39:46.845Z,9.85
2022-10-24T06:42:17.329Z,9.55
2022-10-24T06:44:47.770Z,10.75
2022-10-24T06:47:18.771Z,9.88
2022-10-24T06:49:49.163Z,10.45
2022-10-24T06:52:19.580Z,10.55
2022-10-24T06:54:50.126Z,10.10
2022-10-24T06:57:20.533Z,10.58
2022-10-24T06:59:50.878Z,10.23
2022-10-24T07:02:21.356Z,10.03
2022-10-24T07:04:51.832Z,10.13
2022-10-24T07:07:23.158Z,10.28
2022-10-24T07:09:55.513Z,9.93
2022-10-24T07:12:26.589Z,9.40
2022-10-24T07:14:57.124Z,9.40
2022-10-24T07:17:27.661Z,9.50
2022-10-24T07:19:57.982Z,8.85
2022-10-24T07:22:30.318Z,9.73
2022-10-24T07:25:00.464Z,8.93
2022-10-24T07:27:30.878Z,8.73
2022-10-24T07:30:04.726Z,8.75
2022-10-24T07:32:33.271Z,8.38
2022-10-24T07:35:03.583Z,7.70
2022-10-24T07:37:34.419Z,7.85
2022-10-24T07:40:05.097Z,8.00
2022-10-24T07:42:35.514Z,8.10
2022-10-24T07:45:07.117Z,7.40
2022-10-24T07:47:37.612Z,7.60
2022-10-24T07:50:08.943Z,6.85
2022-10-24T07:52:39.264Z,6.17
2022-10-24T07:55:10.143Z,6.37
2022-10-24T07:57:40.779Z,6.40
2022-10-24T08:00:12.110Z,6.90
2022-10-24T08:02:42.884Z,6.20
2022-10-24T08:05:13.498Z,5.75
2022-10-24T08:07:48.564Z,6.50
2022-10-24T08:10:15.983Z,5.90
2022-10-24T08:12:46.566Z,5.30
2022-10-24T08:15:17.240Z,5.45
2022-10-24T08:17:47.672Z,5.30
2022-10-24T08:20:18.068Z,5.37
2022-10-24T08:22:48.658Z,5.40
2022-10-24T08:25:19.078Z,5.55
2022-10-24T08:27:49.958Z,5.08
2022-10-24T08:30:20.726Z,5.00
2022-10-24T08:32:51.226Z,4.53
2022-10-24T08:35:22.078Z,4.42
2022-10-24T08:37:52.451Z,4.50
2022-10-24T08:40:22.773Z,4.40
2022-10-24T08:42:53.182Z,4.08
2022-10-24T08:45:30.040Z,4.05
2022-10-24T08:48:06.224Z,4.12
2022-10-24T08:50:38.140Z,3.70
2022-10-24T08:53:17.611Z,4.03
2022-10-24T08:55:52.927Z,4.00
2022-10-24T08:58:29.187Z,4.08
2022-10-24T09:01:02.503Z,4.12
2022-10-24T09:03:56.474Z,3.90
2022-10-24T09:06:22.906Z,4.53
2022-10-24T09:09:02.154Z,3.58
2022-10-24T09:11:50.391Z,3.98
2022-10-24T09:14:23.754Z,3.75
2022-10-24T09:16:57.078Z,3.95
2022-10-24T09:19:30.578Z,3.50
2022-10-24T09:22:02.009Z,4.12
2022-10-24T09:24:40.963Z,3.83
2022-10-24T09:29:51.489Z,3.83
2022-10-24T09:32:26.304Z,3.83
2022-10-24T09:34:58.245Z,3.80
2022-10-24T09:37:44.377Z,3.50
2022-10-24T09:40:24.536Z,3.92
2022-10-24T09:43:22.114Z,3.55
2022-10-24T09:45:55.045Z,3.77
2022-10-24T09:48:37.264Z,3.72
2022-10-24T09:51:09.304Z,3.15
2022-10-24T09:53:42.634Z,3.67
2022-10-24T09:56:15.369Z,3.40
2022-10-24T09:58:45.909Z,3.25
2022-10-24T10:01:19.419Z,3.77
2022-10-24T10:04:08.876Z,3.50
2022-10-24T10:06:38.016Z,7.58
2022-10-24T10:09:11.774Z,4.70
2022-10-24T10:11:49.363Z,3.62
2022-10-24T10:14:24.310Z,3.35
2022-10-24T10:17:06.679Z,3.45
2022-10-24T10:19:38.515Z,3.30
2022-10-24T10:22:27.045Z,3.60
2022-10-24T10:24:58.675Z,3.47
2022-10-24T10:27:40.895Z,3.62
2022-10-24T10:30:16.988Z,3.25
2022-10-24T10:32:53.511Z,3.30
2022-10-24T10:35:27.022Z,3.65
2022-10-24T10:38:06.243Z,3.50
2022-10-24T10:40:42.661Z,3.65
2022-10-24T10:43:40.075Z,3.35
2022-10-24T10:46:34.707Z,3.60
2022-10-24T10:49:10.700Z,3.55
2022-10-24T10:51:47.296Z,3.77
2022-10-24T10:54:41.936Z,3.15
2022-10-24T10:57:26.527Z,3.42
2022-10-24T10:59:59.101Z,3.60
2022-10-24T11:02:50.804Z,3.60
2022-10-24T11:05:24.380Z,6.92
2022-10-24T11:08:09.639Z,3.65
2022-10-24T11:10:45.792Z,3.50
2022-10-24T11:13:22.053Z,3.75
2022-10-24T11:15:55.506Z,3.35
2022-10-24T11:18:31.639Z,3.30
2022-10-24T11:21:07.032Z,3.85
2022-10-24T11:23:46.318Z,2.80
2022-10-24T11:26:34.965Z,3.42
2022-10-24T11:29:14.209Z,2.98
2022-10-24T11:31:50.493Z,2.92
2022-10-24T11:37:16.494Z,2.60
2022-10-24T11:40:08.236Z,2.42
2022-10-24T11:42:50.237Z,2.70
2022-10-24T11:45:23.739Z,3.33
2022-10-24T11:47:57.746Z,2.87
2022-10-24T11:50:40.290Z,2.75
2022-10-24T11:53:16.408Z,3.33
2022-10-24T11:55:49.884Z,3.00
2022-10-24T11:58:23.077Z,3.05
2022-10-24T12:01:02.419Z,3.83
2022-10-24T12:04:04.822Z,3.10
2022-10-24T12:06:53.533Z,2.55
2022-10-24T12:09:57.293Z,2.55
2022-10-24T12:12:50.264Z,2.90
2022-10-24T12:15:43.643Z,2.70
2022-10-24T12:18:32.265Z,2.60
2022-10-24T12:21:14.851Z,2.72
2022-10-24T12:23:48.382Z,2.60
2022-10-24T12:26:22.095Z,2.95
2022-10-24T12:29:04.129Z,2.85
2022-10-24T12:31:37.744Z,2.50
2022-10-24T12:34:20.585Z,2.80
2022-10-24T12:37:11.810Z,2.75
2022-10-24T12:39:47.376Z,2.95
2022-10-24T12:42:26.445Z,2.83
2022-10-24T12:45:08.964Z,2.65
2022-10-24T12:47:45.575Z,3.62
2022-10-24T12:50:25.988Z,2.80
2022-10-24T12:53:20.782Z,3.12
2022-10-24T12:55:54.797Z,2.70
2022-10-24T12:58:36.618Z,2.77
2022-10-24T13:01:13.471Z,2.60
2022-10-24T13:03:50.116Z,3.60
2022-10-24T13:06:29.611Z,2.45
2022-10-24T13:09:14.647Z,2.50
2022-10-24T13:12:12.210Z,2.40
2022-10-24T13:15:03.950Z,2.50
2022-10-24T13:17:46.499Z,2.50
2022-10-24T13:20:20.244Z,2.50
2022-10-24T13:22:51.659Z,2.50
2022-10-24T13:25:34.016Z,2.60
2022-10-24T13:28:25.451Z,2.55
2022-10-24T13:31:04.573Z,2.55
2022-10-24T13:33:37.966Z,2.77
2022-10-24T13:36:18.679Z,2.60
2022-10-24T13:38:57.935Z,3.15
2022-10-24T13:41:37.733Z,2.47
2022-10-24T13:44:29.151Z,2.77
2022-10-24T13:47:14.373Z,2.45
2022-10-24T13:50:07.372Z,2.60
2022-10-24T13:52:49.247Z,2.85
2022-10-24T13:55:33.468Z,2.72
2022-10-24T13:58:21.723Z,2.87
2022-10-24T14:01:07.921Z,2.15
2022-10-24T14:03:42.442Z,2.55
2022-10-24T14:06:12.376Z,2.42
2022-10-24T14:08:57.467Z,2.60
2022-10-24T14:11:26.263Z,4.65
2022-10-24T14:14:03.942Z,3.00
2022-10-24T14:16:34.514Z,2.50
2022-10-24T14:19:16.019Z,2.77
2022-10-24T14:21:46.453Z,2.40
2022-10-24T14:24:19.542Z,2.47
2022-10-24T14:26:54.019Z,2.83
2022-10-24T14:29:27.760Z,2.75
2022-10-24T14:32:03.877Z,3.15
2022-10-24T14:34:36.751Z,2.77
2022-10-24T14:37:10.188Z,2.65
2022-10-24T14:39:41.669Z,3.15
2022-10-24T14:42:18.358Z,3.15
2022-10-24T14:44:52.863Z,2.50
2022-10-24T14:47:35.360Z,2.85
2022-10-24T14:50:08.691Z,2.80
2022-10-24T14:52:40.806Z,2.42
2022-10-24T14:55:21.864Z,3.02
2022-10-24T14:57:54.608Z,2.98
2022-10-24T15:00:27.245Z,2.87
2022-10-24T15:03:01.211Z,3.00
2022-10-24T15:05:35.114Z,3.12
2022-10-24T15:08:21.980Z,2.62
2022-10-24T15:10:46.834Z,3.08
2022-10-24T15:13:23.477Z,3.58
2022-10-24T15:15:59.710Z,3.65
2022-10-24T15:18:43.866Z,6.40
2022-10-24T15:21:20.302Z,3.92
2022-10-24T15:23:56.845Z,4.20
2022-10-24T15:26:43.382Z,4.28
2022-10-24T15:29:16.849Z,3.77
2022-10-24T15:31:49.255Z,3.90
2022-10-24T15:34:24.791Z,3.70
2022-10-24T15:36:56.882Z,3.40
2022-10-24T15:39:27.861Z,3.58
2022-10-24T15:41:58.810Z,3.10
2022-10-24T15:44:31.506Z,3.60
2022-10-24T15:47:02.250Z,3.10
2022-10-24T15:49:32.697Z,3.50
2022-10-24T15:52:08.106Z,4.17
2022-10-24T15:54:38.482Z,3.72
2022-10-24T15:57:11.856Z,3.30
2022-10-24T15:59:42.173Z,3.50
2022-10-24T16:02:24.257Z,3.60
2022-10-24T16:04:54.627Z,3.20
2022-10-24T16:07:24.952Z,4.55
2022-10-24T16:09:55.644Z,3.80
2022-10-24T16:12:26.038Z,3.20
2022-10-24T16:14:56.420Z,3.75
2022-10-24T16:17:26.919Z,3.80
2022-10-24T16:19:57.316Z,2.98
2022-10-24T16:22:27.746Z,3.22
2022-10-24T16:24:58.212Z,3.47
2022-10-24T16:27:28.533Z,3.62
2022-10-24T16:29:58.896Z,3.12
2022-10-24T16:32:29.431Z,3.37
2022-10-24T16:34:59.844Z,3.58
2022-10-24T16:37:30.295Z,3.35
2022-10-24T16:40:00.882Z,3.08
2022-10-24T16:42:31.249Z,5.42
2022-10-24T16:45:02.498Z,3.92
2022-10-24T16:47:33.172Z,3.30
2022-10-24T16:50:04.437Z,3.60
2022-10-24T16:52:36.317Z,3.60
2022-10-24T16:55:07.163Z,5.37
2022-10-24T16:57:37.653Z,3.72
2022-10-24T17:00:09.400Z,3.00
2022-10-24T17:02:39.907Z,3.22
2022-10-24T17:05:11.742Z,3.25
2022-10-24T17:07:43.238Z,3.58
2022-10-24T17:10:14.440Z,3.17
2022-10-24T17:12:49.458Z,3.10
2022-10-24T17:15:22.399Z,3.10
2022-10-24T17:17:53.230Z,4.47
2022-10-24T17:20:23.625Z,4.58
2022-10-24T17:22:54.139Z,3.22
2022-10-24T17:25:27.133Z,7.83
2022-10-24T17:27:58.877Z,4.17
2022-10-24T17:30:32.985Z,5.92
2022-10-24T17:33:03.535Z,3.70
2022-10-24T17:35:35.765Z,6.83
2022-10-24T17:38:09.321Z,3.80
2022-10-24T17:40:45.616Z,12.75
2022-10-24T17:43:22.176Z,4.40
2022-10-24T17:45:54.422Z,3.42
2022-10-24T17:48:25.486Z,3.00
2022-10-24T17:50:58.580Z,3.85
2022-10-24T17:53:28.972Z,6.70
2022-10-24T17:55:59.405Z,2.72
2022-10-24T17:58:29.820Z,6.28
2022-10-24T18:01:00.968Z,3.72
2022-10-24T18:03:31.422Z,3.27
2022-10-24T18:06:03.546Z,3.45
2022-10-24T18:08:34.103Z,3.30
2022-10-24T18:11:08.521Z,8.85
2022-10-24T18:13:39.981Z,10.00
2022-10-24T18:16:11.915Z,5.08
2022-10-24T18:18:43.817Z,3.45
2022-10-24T18:21:24.730Z,9.80
2022-10-24T18:23:56.294Z,3.37
2022-10-24T18:26:28.083Z,6.37
2022-10-24T18:28:58.460Z,9.85
2022-10-24T18:31:30.837Z,4.65
2022-10-24T18:34:06.361Z,8.48
2022-10-24T18:36:34.228Z,3.17
2022-10-24T18:39:05.852Z,3.05
2022-10-24T18:41:51.028Z,3.83
2022-10-24T18:44:34.488Z,3.25
2022-10-24T18:47:07.973Z,3.05
2022-10-24T18:49:44.043Z,3.25
2022-10-24T18:52:32.389Z,4.03
2022-10-24T18:55:23.778Z,3.35
2022-10-24T18:57:54.439Z,7.10
2022-10-24T19:00:29.309Z,3.50
2022-10-24T19:03:22.663Z,3.50
2022-10-24T19:05:59.158Z,2.90
2022-10-24T19:08:29.695Z,3.12
2022-10-24T19:11:00.287Z,3.30
2022-10-24T19:13:30.825Z,4.45
2022-10-24T19:16:05.171Z,3.47
2022-10-24T19:18:37.677Z,2.75
2022-10-24T19:21:08.102Z,2.80
2022-10-24T19:23:38.590Z,3.20
2022-10-24T19:26:10.686Z,3.12
2022-10-24T19:28:41.309Z,3.30
2022-10-24T19:31:13.405Z,3.12
2022-10-24T19:33:44.579Z,3.92
2022-10-24T19:36:19.146Z,3.98
2022-10-24T19:38:48.232Z,3.20
2022-10-24T19:41:18.609Z,3.08
2022-10-24T19:43:49.010Z,3.50
2022-10-24T19:46:20.462Z,4.20
2022-10-24T19:48:52.976Z,3.58
2022-10-24T19:51:25.111Z,5.28
2022-10-24T19:53:57.053Z,14.98
2022-10-24T19:56:29.191Z,3.00
2022-10-24T19:58:59.933Z,3.27
2022-10-24T20:01:32.435Z,5.17
2022-10-24T20:04:02.988Z,3.12
2022-10-24T20:06:33.667Z,3.33
2022-10-24T20:09:04.127Z,5.80
2022-10-24T20:11:34.698Z,3.87
2022-10-24T20:14:05.080Z,4.25
2022-10-24T20:16:35.546Z,4.50
2022-10-24T20:19:06.776Z,3.83
2022-10-24T20:21:37.616Z,2.75
2022-10-24T20:24:08.756Z,4.10
2022-10-24T20:26:39.143Z,7.60
2022-10-24T20:29:09.531Z,3.87
2022-10-24T20:31:43.275Z,3.98
2022-10-24T20:34:14.943Z,3.50
2022-10-24T20:36:47.959Z,3.30
2022-10-24T20:39:20.040Z,3.15
2022-10-24T20:41:53.967Z,3.33
2022-10-24T20:44:22.904Z,2.87
2022-10-24T20:46:54.926Z,3.80
2022-10-24T20:49:25.667Z,3.30
2022-10-24T20:51:56.069Z,3.30
2022-10-24T20:54:26.536Z,3.30
2022-10-24T20:56:57.170Z,3.00
2022-10-24T20:59:27.684Z,3.35
2022-10-24T21:01:58.190Z,3.08
2022-10-24T21:04:28.769Z,3.20
2022-10-24T21:06:59.073Z,3.22
2022-10-24T21:09:29.460Z,3.60
2022-10-24T21:11:59.864Z,3.15
2022-10-24T21:14:30.250Z,4.25
2022-10-24T21:17:00.563Z,3.12
2022-10-24T21:19:31.020Z,3.10
2022-10-24T21:22:01.418Z,3.12
2022-10-24T21:24:31.761Z,3.10
2022-10-24T21:27:02.628Z,3.40
2022-10-24T21:29:34.135Z,4.50
2022-10-24T21:32:04.764Z,3.50
2022-10-24T21:34:36.017Z,3.25
2022-10-24T21:37:06.910Z,3.17
2022-10-24T21:39:37.238Z,4.40
2022-10-24T21:42:07.637Z,3.37
2022-10-24T21:44:37.945Z,3.50
2022-10-24T21:47:08.284Z,3.40
2022-10-24T21:49:38.670Z,3.80
2022-10-24T21:52:09.227Z,3.62
2022-10-24T21:54:39.552Z,3.05
2022-10-24T21:57:10.009Z,3.42
2022-10-24T21:59:41.531Z,3.60
2022-10-24T22:02:12.027Z,3.42
2022-10-24T22:04:42.496Z,3.25
2022-10-24T22:07:12.986Z,3.10
2022-10-24T22:09:43.526Z,3.30
2022-10-24T22:12:13.971Z,3.92
2022-10-24T22:14:44.373Z,4.17
2022-10-24T22:17:14.800Z,3.35
2022-10-24T22:19:45.238Z,3.72
2022-10-24T22:22:16.446Z,3.58
2022-10-24T22:24:46.929Z,3.40
2022-10-24T22:27:17.319Z,4.45
2022-10-24T22:29:47.706Z,5.15
2022-10-24T22:32:18.379Z,3.65
2022-10-24T22:34:49.043Z,3.80
2022-10-24T22:37:27.720Z,3.65
2022-10-24T22:39:58.530Z,3.58
2022-10-24T22:42:28.990Z,3.75
2022-10-24T22:44:59.908Z,4.22
2022-10-24T22:48:03.747Z,3.62
2022-10-24T22:50:54.683Z,3.55
2022-10-24T22:53:28.196Z,4.33
2022-10-24T22:56:07.333Z,4.75
2022-10-24T22:58:38.175Z,3.65
2022-10-24T23:01:32.726Z,4.20
2022-10-24T23:04:26.725Z,4.28
2022-10-24T23:07:22.500Z,3.70
2022-10-24T23:09:52.357Z,3.77
2022-10-24T23:12:23.699Z,3.70
2022-10-24T23:14:54.454Z,3.58
2022-10-24T23:17:27.601Z,4.05
2022-10-24T23:19:58.460Z,3.67
2022-10-24T23:22:31.305Z,4.08
2022-10-24T23:25:02.727Z,3.58
2022-10-24T23:27:41.127Z,3.50
2022-10-24T23:30:17.172Z,3.80
2022-10-24T23:32:49.208Z,3.37
2022-10-24T23:35:21.637Z,3.65
2022-10-24T23:37:53.674Z,4.10
2022-10-24T23:40:35.259Z,3.98
2022-10-24T23:43:05.994Z,3.77
2022-10-24T23:45:39.464Z,3.55
2022-10-24T23:48:43.129Z,4.00
2022-10-24T23:51:19.299Z,4.10
2022-10-24T23:53:52.945Z,3.70
2022-10-24T23:56:27.515Z,4.22
2022-10-24T23:58:57.949Z,4.22
